sensor_id;sensor_type;location;lat;lon;timestamp;P1;durP1;ratioP1;P2;durP2;ratioP2
21014;SDS011;19207;-23.482;-46.500;2023-06-22T00:00:55;43.58;;;19.80;;
21014;SDS011;19207;-23.482;-46.500;2023-06-22T00:03:42;59.28;;;19.62;;
21014;SDS011;19207;-23.482;-46.500;2023-06-22T00:06:29;45.28;;;18.90;;
21014;SDS011;19207;-23.482;-46.500;2023-06-22T00:09:16;50.70;;;18.80;;
21014;SDS011;19207;-23.482;-46.500;2023-06-22T00:12:03;53.72;;;19.48;;
21014;SDS011;19207;-23.482;-46.500;2023-06-22T00:14:50;38.08;;;19.12;;
21014;SDS011;19207;-23.482;-46.500;2023-06-22T00:17:36;56.35;;;18.52;;
21014;SDS011;19207;-23.482;-46.500;2023-06-22T00:20:24;45.08;;;18.55;;
21014;SDS011;19207;-23.482;-46.500;2023-06-22T00:23:14;43.40;;;19.58;;
21014;SDS011;19207;-23.482;-46.500;2023-06-22T00:26:02;56.22;;;21.23;;
21014;SDS011;19207;-23.482;-46.500;2023-06-22T00:28:50;55.08;;;20.35;;
21014;SDS011;19207;-23.482;-46.500;2023-06-22T00:31:36;45.05;;;20.77;;
21014;SDS011;19207;-23.482;-46.500;2023-06-22T00:34:23;49.47;;;21.70;;
21014;SDS011;19207;-23.482;-46.500;2023-06-22T00:37:10;43.63;;;20.62;;
21014;SDS011;19207;-23.482;-46.500;2023-06-22T00:39:57;54.65;;;21.52;;
21014;SDS011;19207;-23.482;-46.500;2023-06-22T00:42:44;54.35;;;22.42;;
21014;SDS011;19207;-23.482;-46.500;2023-06-22T00:45:31;51.65;;;23.80;;
21014;SDS011;19207;-23.482;-46.500;2023-06-22T00:48:18;62.45;;;24.12;;
21014;SDS011;19207;-23.482;-46.500;2023-06-22T00:51:06;57.58;;;25.62;;
21014;SDS011;19207;-23.482;-46.500;2023-06-22T00:53:52;64.72;;;25.92;;
21014;SDS011;19207;-23.482;-46.500;2023-06-22T00:56:40;61.25;;;26.05;;
21014;SDS011;19207;-23.482;-46.500;2023-06-22T00:59:28;54.85;;;26.23;;
21014;SDS011;19207;-23.482;-46.500;2023-06-22T01:02:15;73.53;;;28.80;;
21014;SDS011;19207;-23.482;-46.500;2023-06-22T01:05:02;72.43;;;28.70;;
21014;SDS011;19207;-23.482;-46.500;2023-06-22T01:16:35;78.65;;;27.05;;
21014;SDS011;19207;-23.482;-46.500;2023-06-22T01:19:35;75.65;;;29.42;;
21014;SDS011;19207;-23.482;-46.500;2023-06-22T01:22:25;86.37;;;29.23;;
21014;SDS011;19207;-23.482;-46.500;2023-06-22T01:25:19;78.70;;;29.12;;
21014;SDS011;19207;-23.482;-46.500;2023-06-22T01:28:19;88.70;;;33.80;;
21014;SDS011;19207;-23.482;-46.500;2023-06-22T01:32:18;107.65;;;36.47;;
21014;SDS011;19207;-23.482;-46.500;2023-06-22T01:35:06;96.57;;;36.03;;
21014;SDS011;19207;-23.482;-46.500;2023-06-22T01:37:53;112.47;;;37.42;;
21014;SDS011;19207;-23.482;-46.500;2023-06-22T01:40:39;97.95;;;36.78;;
21014;SDS011;19207;-23.482;-46.500;2023-06-22T01:43:26;91.87;;;37.15;;
21014;SDS011;19207;-23.482;-46.500;2023-06-22T01:46:14;101.82;;;38.13;;
21014;SDS011;19207;-23.482;-46.500;2023-06-22T01:49:01;102.15;;;37.97;;
21014;SDS011;19207;-23.482;-46.500;2023-06-22T01:51:49;118.78;;;42.75;;
21014;SDS011;19207;-23.482;-46.500;2023-06-22T01:54:36;102.57;;;40.28;;
21014;SDS011;19207;-23.482;-46.500;2023-06-22T01:57:23;104.75;;;40.25;;
21014;SDS011;19207;-23.482;-46.500;2023-06-22T02:00:11;102.55;;;37.83;;
21014;SDS011;19207;-23.482;-46.500;2023-06-22T02:03:08;103.95;;;40.00;;
21014;SDS011;19207;-23.482;-46.500;2023-06-22T02:05:59;116.25;;;40.97;;
21014;SDS011;19207;-23.482;-46.500;2023-06-22T02:08:49;114.93;;;44.17;;
21014;SDS011;19207;-23.482;-46.500;2023-06-22T02:11:36;110.70;;;41.88;;
21014;SDS011;19207;-23.482;-46.500;2023-06-22T02:14:23;117.68;;;43.83;;
21014;SDS011;19207;-23.482;-46.500;2023-06-22T02:17:10;138.75;;;52.35;;
21014;SDS011;19207;-23.482;-46.500;2023-06-22T02:19:57;171.10;;;56.05;;
21014;SDS011;19207;-23.482;-46.500;2023-06-22T02:22:44;167.52;;;58.35;;
21014;SDS011;19207;-23.482;-46.500;2023-06-22T02:25:32;177.95;;;60.17;;
21014;SDS011;19207;-23.482;-46.500;2023-06-22T02:28:18;184.65;;;63.38;;
21014;SDS011;19207;-23.482;-46.500;2023-06-22T02:31:05;204.82;;;67.45;;
21014;SDS011;19207;-23.482;-46.500;2023-06-22T02:33:52;278.85;;;81.82;;
21014;SDS011;19207;-23.482;-46.500;2023-06-22T02:36:39;280.12;;;77.53;;
21014;SDS011;19207;-23.482;-46.500;2023-06-22T02:39:35;239.75;;;72.32;;
21014;SDS011;19207;-23.482;-46.500;2023-06-22T02:42:22;232.52;;;69.20;;
21014;SDS011;19207;-23.482;-46.500;2023-06-22T02:45:09;223.82;;;65.50;;
21014;SDS011;19207;-23.482;-46.500;2023-06-22T02:47:56;212.10;;;64.35;;
21014;SDS011;19207;-23.482;-46.500;2023-06-22T02:50:44;219.07;;;65.15;;
21014;SDS011;19207;-23.482;-46.500;2023-06-22T02:53:31;208.35;;;62.30;;
21014;SDS011;19207;-23.482;-46.500;2023-06-22T02:56:18;218.65;;;61.83;;
21014;SDS011;19207;-23.482;-46.500;2023-06-22T02:59:10;204.07;;;59.72;;
21014;SDS011;19207;-23.482;-46.500;2023-06-22T03:01:57;210.88;;;62.55;;
21014;SDS011;19207;-23.482;-46.500;2023-06-22T03:04:43;199.15;;;61.25;;
21014;SDS011;19207;-23.482;-46.500;2023-06-22T03:07:33;197.43;;;58.67;;
21014;SDS011;19207;-23.482;-46.500;2023-06-22T03:10:20;202.43;;;58.95;;
21014;SDS011;19207;-23.482;-46.500;2023-06-22T03:13:07;189.55;;;56.08;;
21014;SDS011;19207;-23.482;-46.500;2023-06-22T03:15:53;170.48;;;54.28;;
21014;SDS011;19207;-23.482;-46.500;2023-06-22T03:18:40;146.27;;;47.67;;
21014;SDS011;19207;-23.482;-46.500;2023-06-22T03:21:28;149.62;;;45.75;;
21014;SDS011;19207;-23.482;-46.500;2023-06-22T03:24:14;151.95;;;46.60;;
21014;SDS011;19207;-23.482;-46.500;2023-06-22T03:27:02;131.35;;;43.38;;
21014;SDS011;19207;-23.482;-46.500;2023-06-22T03:29:50;127.90;;;41.25;;
21014;SDS011;19207;-23.482;-46.500;2023-06-22T03:32:37;115.05;;;38.22;;
21014;SDS011;19207;-23.482;-46.500;2023-06-22T03:35:24;111.70;;;37.08;;
21014;SDS011;19207;-23.482;-46.500;2023-06-22T03:38:11;92.80;;;33.47;;
21014;SDS011;19207;-23.482;-46.500;2023-06-22T03:40:57;85.38;;;32.47;;
21014;SDS011;19207;-23.482;-46.500;2023-06-22T03:43:44;78.37;;;29.58;;
21014;SDS011;19207;-23.482;-46.500;2023-06-22T03:46:31;76.12;;;27.27;;
21014;SDS011;19207;-23.482;-46.500;2023-06-22T03:49:18;69.37;;;26.12;;
21014;SDS011;19207;-23.482;-46.500;2023-06-22T03:52:04;65.75;;;26.12;;
21014;SDS011;19207;-23.482;-46.500;2023-06-22T03:54:52;67.55;;;25.08;;
21014;SDS011;19207;-23.482;-46.500;2023-06-22T03:57:39;64.05;;;24.27;;
21014;SDS011;19207;-23.482;-46.500;2023-06-22T04:00:26;62.78;;;23.95;;
21014;SDS011;19207;-23.482;-46.500;2023-06-22T04:03:13;61.67;;;22.87;;
21014;SDS011;19207;-23.482;-46.500;2023-06-22T04:06:00;54.15;;;21.33;;
21014;SDS011;19207;-23.482;-46.500;2023-06-22T04:08:47;58.22;;;21.35;;
21014;SDS011;19207;-23.482;-46.500;2023-06-22T04:11:35;53.53;;;20.50;;
21014;SDS011;19207;-23.482;-46.500;2023-06-22T04:14:22;46.50;;;19.37;;
21014;SDS011;19207;-23.482;-46.500;2023-06-22T04:17:09;53.42;;;19.75;;
21014;SDS011;19207;-23.482;-46.500;2023-06-22T04:20:00;46.95;;;19.48;;
21014;SDS011;19207;-23.482;-46.500;2023-06-22T04:22:48;49.85;;;20.42;;
21014;SDS011;19207;-23.482;-46.500;2023-06-22T04:25:35;66.60;;;24.98;;
21014;SDS011;19207;-23.482;-46.500;2023-06-22T04:28:21;79.30;;;26.02;;
21014;SDS011;19207;-23.482;-46.500;2023-06-22T04:31:08;78.10;;;26.95;;
21014;SDS011;19207;-23.482;-46.500;2023-06-22T04:33:56;64.30;;;24.33;;
21014;SDS011;19207;-23.482;-46.500;2023-06-22T04:36:43;74.75;;;24.37;;
21014;SDS011;19207;-23.482;-46.500;2023-06-22T04:39:30;64.82;;;21.83;;
21014;SDS011;19207;-23.482;-46.500;2023-06-22T04:42:16;50.83;;;19.10;;
21014;SDS011;19207;-23.482;-46.500;2023-06-22T04:45:04;39.33;;;18.23;;
21014;SDS011;19207;-23.482;-46.500;2023-06-22T04:47:51;48.05;;;18.42;;
21014;SDS011;19207;-23.482;-46.500;2023-06-22T04:50:37;39.65;;;16.80;;
21014;SDS011;19207;-23.482;-46.500;2023-06-22T04:53:24;31.70;;;16.25;;
21014;SDS011;19207;-23.482;-46.500;2023-06-22T04:56:15;37.88;;;17.08;;
21014;SDS011;19207;-23.482;-46.500;2023-06-22T04:59:03;41.13;;;16.52;;
21014;SDS011;19207;-23.482;-46.500;2023-06-22T05:01:49;44.95;;;16.23;;
21014;SDS011;19207;-23.482;-46.500;2023-06-22T05:04:36;44.58;;;16.42;;
21014;SDS011;19207;-23.482;-46.500;2023-06-22T05:07:26;46.50;;;16.65;;
21014;SDS011;19207;-23.482;-46.500;2023-06-22T05:10:12;36.33;;;14.45;;
21014;SDS011;19207;-23.482;-46.500;2023-06-22T05:12:59;45.50;;;15.05;;
21014;SDS011;19207;-23.482;-46.500;2023-06-22T05:15:46;39.10;;;15.30;;
21014;SDS011;19207;-23.482;-46.500;2023-06-22T05:18:32;30.35;;;13.85;;
21014;SDS011;19207;-23.482;-46.500;2023-06-22T05:21:23;40.40;;;13.88;;
21014;SDS011;19207;-23.482;-46.500;2023-06-22T05:24:09;35.38;;;14.77;;
21014;SDS011;19207;-23.482;-46.500;2023-06-22T05:26:56;39.42;;;15.25;;
21014;SDS011;19207;-23.482;-46.500;2023-06-22T05:33:26;32.42;;;15.85;;
21014;SDS011;19207;-23.482;-46.500;2023-06-22T05:36:16;38.50;;;16.75;;
21014;SDS011;19207;-23.482;-46.500;2023-06-22T05:39:12;43.80;;;17.48;;
21014;SDS011;19207;-23.482;-46.500;2023-06-22T05:42:01;36.40;;;16.00;;
21014;SDS011;19207;-23.482;-46.500;2023-06-22T05:44:51;36.30;;;14.95;;
21014;SDS011;19207;-23.482;-46.500;2023-06-22T05:47:40;44.67;;;14.95;;
21014;SDS011;19207;-23.482;-46.500;2023-06-22T05:50:30;36.38;;;15.45;;
21014;SDS011;19207;-23.482;-46.500;2023-06-22T05:53:20;35.35;;;15.13;;
21014;SDS011;19207;-23.482;-46.500;2023-06-22T05:56:08;32.88;;;16.15;;
21014;SDS011;19207;-23.482;-46.500;2023-06-22T05:58:56;41.15;;;15.80;;
21014;SDS011;19207;-23.482;-46.500;2023-06-22T06:01:45;40.12;;;16.60;;
21014;SDS011;19207;-23.482;-46.500;2023-06-22T06:04:36;47.88;;;17.12;;
21014;SDS011;19207;-23.482;-46.500;2023-06-22T06:07:25;39.67;;;17.25;;
21014;SDS011;19207;-23.482;-46.500;2023-06-22T06:10:14;46.15;;;17.73;;
21014;SDS011;19207;-23.482;-46.500;2023-06-22T06:13:05;38.70;;;17.65;;
21014;SDS011;19207;-23.482;-46.500;2023-06-22T06:15:55;41.78;;;17.12;;
21014;SDS011;19207;-23.482;-46.500;2023-06-22T06:18:45;46.03;;;18.25;;
21014;SDS011;19207;-23.482;-46.500;2023-06-22T06:21:44;46.22;;;17.48;;
21014;SDS011;19207;-23.482;-46.500;2023-06-22T06:24:34;50.45;;;18.65;;
21014;SDS011;19207;-23.482;-46.500;2023-06-22T06:27:22;39.53;;;19.30;;
21014;SDS011;19207;-23.482;-46.500;2023-06-22T06:30:16;39.90;;;18.83;;
21014;SDS011;19207;-23.482;-46.500;2023-06-22T06:33:04;50.50;;;20.85;;
21014;SDS011;19207;-23.482;-46.500;2023-06-22T06:35:54;41.47;;;20.48;;
21014;SDS011;19207;-23.482;-46.500;2023-06-22T06:38:42;38.58;;;20.23;;
21014;SDS011;19207;-23.482;-46.500;2023-06-22T06:41:31;45.42;;;21.37;;
21014;SDS011;19207;-23.482;-46.500;2023-06-22T06:44:19;47.40;;;21.17;;
21014;SDS011;19207;-23.482;-46.500;2023-06-22T06:47:07;57.72;;;21.83;;
21014;SDS011;19207;-23.482;-46.500;2023-06-22T06:49:55;54.85;;;21.90;;
21014;SDS011;19207;-23.482;-46.500;2023-06-22T06:52:45;47.25;;;21.70;;
21014;SDS011;19207;-23.482;-46.500;2023-06-22T06:55:33;50.72;;;22.60;;
21014;SDS011;19207;-23.482;-46.500;2023-06-22T06:58:21;50.47;;;21.50;;
21014;SDS011;19207;-23.482;-46.500;2023-06-22T07:01:11;62.85;;;23.90;;
21014;SDS011;19207;-23.482;-46.500;2023-06-22T07:03:59;69.87;;;28.40;;
21014;SDS011;19207;-23.482;-46.500;2023-06-22T07:06:48;74.12;;;29.08;;
21014;SDS011;19207;-23.482;-46.500;2023-06-22T07:09:39;88.53;;;30.70;;
21014;SDS011;19207;-23.482;-46.500;2023-06-22T07:12:30;87.82;;;31.92;;
21014;SDS011;19207;-23.482;-46.500;2023-06-22T07:15:18;88.90;;;32.88;;
21014;SDS011;19207;-23.482;-46.500;2023-06-22T07:18:06;103.25;;;36.30;;
21014;SDS011;19207;-23.482;-46.500;2023-06-22T07:20:59;119.45;;;37.08;;
21014;SDS011;19207;-23.482;-46.500;2023-06-22T07:23:48;99.65;;;36.80;;
21014;SDS011;19207;-23.482;-46.500;2023-06-22T07:26:39;98.35;;;36.10;;
21014;SDS011;19207;-23.482;-46.500;2023-06-22T07:29:31;100.50;;;38.88;;
21014;SDS011;19207;-23.482;-46.500;2023-06-22T07:32:20;107.22;;;40.28;;
21014;SDS011;19207;-23.482;-46.500;2023-06-22T07:35:14;101.20;;;39.00;;
21014;SDS011;19207;-23.482;-46.500;2023-06-22T07:38:04;112.15;;;39.47;;
21014;SDS011;19207;-23.482;-46.500;2023-06-22T07:40:52;98.97;;;38.55;;
21014;SDS011;19207;-23.482;-46.500;2023-06-22T07:43:45;99.93;;;37.85;;
21014;SDS011;19207;-23.482;-46.500;2023-06-22T07:46:33;117.87;;;39.75;;
21014;SDS011;19207;-23.482;-46.500;2023-06-22T07:49:22;127.95;;;42.25;;
21014;SDS011;19207;-23.482;-46.500;2023-06-22T07:52:11;143.62;;;43.90;;
21014;SDS011;19207;-23.482;-46.500;2023-06-22T07:54:59;148.80;;;45.20;;
21014;SDS011;19207;-23.482;-46.500;2023-06-22T07:57:48;144.18;;;46.70;;
21014;SDS011;19207;-23.482;-46.500;2023-06-22T08:00:38;127.18;;;43.17;;
21014;SDS011;19207;-23.482;-46.500;2023-06-22T08:03:28;135.15;;;44.85;;
21014;SDS011;19207;-23.482;-46.500;2023-06-22T08:06:16;115.55;;;41.92;;
21014;SDS011;19207;-23.482;-46.500;2023-06-22T08:09:05;117.25;;;43.10;;
21014;SDS011;19207;-23.482;-46.500;2023-06-22T08:11:54;114.22;;;41.70;;
21014;SDS011;19207;-23.482;-46.500;2023-06-22T08:14:42;115.32;;;39.28;;
21014;SDS011;19207;-23.482;-46.500;2023-06-22T08:17:32;112.32;;;38.28;;
21014;SDS011;19207;-23.482;-46.500;2023-06-22T08:20:21;101.95;;;37.92;;
21014;SDS011;19207;-23.482;-46.500;2023-06-22T08:23:08;113.65;;;36.45;;
21014;SDS011;19207;-23.482;-46.500;2023-06-22T08:25:57;107.37;;;35.92;;
21014;SDS011;19207;-23.482;-46.500;2023-06-22T08:28:46;110.03;;;36.97;;
21014;SDS011;19207;-23.482;-46.500;2023-06-22T08:31:34;104.80;;;37.22;;
21014;SDS011;19207;-23.482;-46.500;2023-06-22T08:34:24;113.97;;;39.05;;
21014;SDS011;19207;-23.482;-46.500;2023-06-22T08:37:14;107.53;;;37.60;;
21014;SDS011;19207;-23.482;-46.500;2023-06-22T08:40:06;110.50;;;37.47;;
21014;SDS011;19207;-23.482;-46.500;2023-06-22T08:42:55;109.78;;;36.67;;
21014;SDS011;19207;-23.482;-46.500;2023-06-22T08:45:43;108.47;;;37.47;;
21014;SDS011;19207;-23.482;-46.500;2023-06-22T08:48:32;116.65;;;37.42;;
21014;SDS011;19207;-23.482;-46.500;2023-06-22T08:51:19;108.68;;;37.85;;
21014;SDS011;19207;-23.482;-46.500;2023-06-22T08:54:08;101.72;;;38.22;;
21014;SDS011;19207;-23.482;-46.500;2023-06-22T08:56:56;135.02;;;39.63;;
21014;SDS011;19207;-23.482;-46.500;2023-06-22T08:59:44;120.45;;;40.30;;
21014;SDS011;19207;-23.482;-46.500;2023-06-22T09:02:32;111.78;;;38.22;;
21014;SDS011;19207;-23.482;-46.500;2023-06-22T09:05:21;111.43;;;38.42;;
21014;SDS011;19207;-23.482;-46.500;2023-06-22T09:08:12;103.97;;;38.95;;
21014;SDS011;19207;-23.482;-46.500;2023-06-22T09:11:00;120.72;;;39.40;;
21014;SDS011;19207;-23.482;-46.500;2023-06-22T09:13:49;97.55;;;35.10;;
21014;SDS011;19207;-23.482;-46.500;2023-06-22T09:16:40;114.12;;;38.28;;
21014;SDS011;19207;-23.482;-46.500;2023-06-22T09:19:28;114.07;;;36.65;;
21014;SDS011;19207;-23.482;-46.500;2023-06-22T09:22:16;108.82;;;36.33;;
21014;SDS011;19207;-23.482;-46.500;2023-06-22T09:25:04;106.18;;;39.40;;
21014;SDS011;19207;-23.482;-46.500;2023-06-22T09:27:53;112.60;;;40.33;;
21014;SDS011;19207;-23.482;-46.500;2023-06-22T09:30:43;122.65;;;40.40;;
21014;SDS011;19207;-23.482;-46.500;2023-06-22T09:33:33;116.35;;;40.25;;
21014;SDS011;19207;-23.482;-46.500;2023-06-22T09:36:21;121.40;;;40.72;;
21014;SDS011;19207;-23.482;-46.500;2023-06-22T09:39:12;115.35;;;41.45;;
21014;SDS011;19207;-23.482;-46.500;2023-06-22T09:42:00;121.65;;;42.05;;
21014;SDS011;19207;-23.482;-46.500;2023-06-22T09:44:48;120.90;;;40.78;;
21014;SDS011;19207;-23.482;-46.500;2023-06-22T09:47:37;96.53;;;37.50;;
21014;SDS011;19207;-23.482;-46.500;2023-06-22T09:50:27;124.68;;;39.53;;
21014;SDS011;19207;-23.482;-46.500;2023-06-22T09:53:15;111.18;;;40.05;;
21014;SDS011;19207;-23.482;-46.500;2023-06-22T09:56:03;112.37;;;37.28;;
21014;SDS011;19207;-23.482;-46.500;2023-06-22T09:58:52;117.15;;;44.80;;
21014;SDS011;19207;-23.482;-46.500;2023-06-22T10:01:40;140.30;;;55.83;;
21014;SDS011;19207;-23.482;-46.500;2023-06-22T10:04:31;154.07;;;54.40;;
21014;SDS011;19207;-23.482;-46.500;2023-06-22T10:07:25;161.62;;;66.37;;
21014;SDS011;19207;-23.482;-46.500;2023-06-22T10:10:18;190.30;;;79.35;;
21014;SDS011;19207;-23.482;-46.500;2023-06-22T10:13:12;250.82;;;104.22;;
21014;SDS011;19207;-23.482;-46.500;2023-06-22T10:16:01;203.93;;;86.90;;
21014;SDS011;19207;-23.482;-46.500;2023-06-22T10:18:57;146.40;;;57.70;;
21014;SDS011;19207;-23.482;-46.500;2023-06-22T10:22:01;104.50;;;42.10;;
21014;SDS011;19207;-23.482;-46.500;2023-06-22T10:25:00;97.32;;;40.05;;
21014;SDS011;19207;-23.482;-46.500;2023-06-22T10:28:06;99.47;;;39.33;;
21014;SDS011;19207;-23.482;-46.500;2023-06-22T10:31:15;85.38;;;37.60;;
21014;SDS011;19207;-23.482;-46.500;2023-06-22T10:34:21;81.43;;;37.08;;
21014;SDS011;19207;-23.482;-46.500;2023-06-22T10:37:52;90.47;;;31.30;;
21014;SDS011;19207;-23.482;-46.500;2023-06-22T10:41:20;72.70;;;29.63;;
21014;SDS011;19207;-23.482;-46.500;2023-06-22T10:44:32;70.18;;;26.00;;
21014;SDS011;19207;-23.482;-46.500;2023-06-22T10:47:43;68.93;;;26.02;;
21014;SDS011;19207;-23.482;-46.500;2023-06-22T10:51:06;52.72;;;23.15;;
21014;SDS011;19207;-23.482;-46.500;2023-06-22T10:54:40;53.87;;;24.52;;
21014;SDS011;19207;-23.482;-46.500;2023-06-22T10:57:57;58.03;;;22.25;;
21014;SDS011;19207;-23.482;-46.500;2023-06-22T11:01:16;73.80;;;24.15;;
21014;SDS011;19207;-23.482;-46.500;2023-06-22T11:04:33;64.90;;;23.05;;
21014;SDS011;19207;-23.482;-46.500;2023-06-22T11:08:16;57.40;;;23.02;;
21014;SDS011;19207;-23.482;-46.500;2023-06-22T11:11:45;66.55;;;22.87;;
21014;SDS011;19207;-23.482;-46.500;2023-06-22T11:15:20;60.80;;;30.92;;
21014;SDS011;19207;-23.482;-46.500;2023-06-22T11:18:42;50.17;;;20.90;;
21014;SDS011;19207;-23.482;-46.500;2023-06-22T11:21:56;56.03;;;20.95;;
21014;SDS011;19207;-23.482;-46.500;2023-06-22T11:25:07;54.60;;;29.83;;
21014;SDS011;19207;-23.482;-46.500;2023-06-22T11:28:41;62.85;;;22.90;;
21014;SDS011;19207;-23.482;-46.500;2023-06-22T11:32:05;59.10;;;20.12;;
21014;SDS011;19207;-23.482;-46.500;2023-06-22T11:35:33;53.97;;;20.98;;
21014;SDS011;19207;-23.482;-46.500;2023-06-22T11:39:04;54.78;;;20.98;;
21014;SDS011;19207;-23.482;-46.500;2023-06-22T11:46:04;50.65;;;22.98;;
21014;SDS011;19207;-23.482;-46.500;2023-06-22T11:49:54;65.22;;;26.20;;
21014;SDS011;19207;-23.482;-46.500;2023-06-22T11:52:53;71.80;;;29.60;;
21014;SDS011;19207;-23.482;-46.500;2023-06-22T11:59:44;86.78;;;32.45;;
21014;SDS011;19207;-23.482;-46.500;2023-06-22T12:07:07;73.43;;;27.13;;
21014;SDS011;19207;-23.482;-46.500;2023-06-22T12:14:15;52.25;;;23.95;;
21014;SDS011;19207;-23.482;-46.500;2023-06-22T12:17:42;60.95;;;24.98;;
21014;SDS011;19207;-23.482;-46.500;2023-06-22T12:21:11;70.22;;;28.00;;
21014;SDS011;19207;-23.482;-46.500;2023-06-22T12:24:27;65.82;;;24.73;;
21014;SDS011;19207;-23.482;-46.500;2023-06-22T12:36:02;63.30;;;21.30;;
21014;SDS011;19207;-23.482;-46.500;2023-06-22T12:39:36;54.83;;;20.85;;
21014;SDS011;19207;-23.482;-46.500;2023-06-22T12:50:59;44.78;;;15.38;;
21014;SDS011;19207;-23.482;-46.500;2023-06-22T12:54:47;36.70;;;14.15;;
21014;SDS011;19207;-23.482;-46.500;2023-06-22T13:02:12;47.22;;;21.95;;
21014;SDS011;19207;-23.482;-46.500;2023-06-22T13:05:46;39.63;;;17.00;;
21014;SDS011;19207;-23.482;-46.500;2023-06-22T13:09:23;47.78;;;17.70;;
21014;SDS011;19207;-23.482;-46.500;2023-06-22T13:12:58;45.50;;;17.45;;
21014;SDS011;19207;-23.482;-46.500;2023-06-22T13:20:36;30.08;;;14.65;;
21014;SDS011;19207;-23.482;-46.500;2023-06-22T13:42:56;28.95;;;12.68;;
21014;SDS011;19207;-23.482;-46.500;2023-06-22T13:46:23;36.00;;;14.13;;
21014;SDS011;19207;-23.482;-46.500;2023-06-22T13:49:22;22.65;;;11.73;;
21014;SDS011;19207;-23.482;-46.500;2023-06-22T13:52:25;31.70;;;11.60;;
21014;SDS011;19207;-23.482;-46.500;2023-06-22T13:55:28;28.77;;;13.48;;
21014;SDS011;19207;-23.482;-46.500;2023-06-22T13:58:40;24.42;;;11.57;;
21014;SDS011;19207;-23.482;-46.500;2023-06-22T14:01:41;19.48;;;8.68;;
21014;SDS011;19207;-23.482;-46.500;2023-06-22T14:04:50;27.92;;;11.80;;
21014;SDS011;19207;-23.482;-46.500;2023-06-22T14:07:52;18.02;;;9.90;;
21014;SDS011;19207;-23.482;-46.500;2023-06-22T14:10:41;22.60;;;10.38;;
21014;SDS011;19207;-23.482;-46.500;2023-06-22T14:13:36;23.50;;;10.27;;
21014;SDS011;19207;-23.482;-46.500;2023-06-22T14:16:44;23.38;;;10.77;;
21014;SDS011;19207;-23.482;-46.500;2023-06-22T14:19:44;20.62;;;10.40;;
21014;SDS011;19207;-23.482;-46.500;2023-06-22T14:22:33;20.55;;;10.70;;
21014;SDS011;19207;-23.482;-46.500;2023-06-22T14:25:25;20.20;;;9.52;;
21014;SDS011;19207;-23.482;-46.500;2023-06-22T14:28:17;21.00;;;8.98;;
21014;SDS011;19207;-23.482;-46.500;2023-06-22T14:31:09;17.75;;;7.78;;
21014;SDS011;19207;-23.482;-46.500;2023-06-22T14:37:26;19.05;;;7.18;;
21014;SDS011;19207;-23.482;-46.500;2023-06-22T14:40:24;13.93;;;8.73;;
21014;SDS011;19207;-23.482;-46.500;2023-06-22T14:43:15;20.25;;;8.40;;
21014;SDS011;19207;-23.482;-46.500;2023-06-22T14:46:19;13.62;;;7.53;;
21014;SDS011;19207;-23.482;-46.500;2023-06-22T14:49:11;12.60;;;7.80;;
21014;SDS011;19207;-23.482;-46.500;2023-06-22T14:52:16;11.82;;;7.20;;
21014;SDS011;19207;-23.482;-46.500;2023-06-22T14:58:13;12.82;;;7.05;;
21014;SDS011;19207;-23.482;-46.500;2023-06-22T15:01:20;11.05;;;6.95;;
21014;SDS011;19207;-23.482;-46.500;2023-06-22T15:04:28;16.77;;;7.82;;
21014;SDS011;19207;-23.482;-46.500;2023-06-22T15:07:23;14.18;;;6.72;;
21014;SDS011;19207;-23.482;-46.500;2023-06-22T15:10:15;18.52;;;7.18;;
21014;SDS011;19207;-23.482;-46.500;2023-06-22T15:13:11;19.20;;;7.47;;
21014;SDS011;19207;-23.482;-46.500;2023-06-22T15:15:59;14.35;;;7.75;;
21014;SDS011;19207;-23.482;-46.500;2023-06-22T15:18:46;15.20;;;6.55;;
21014;SDS011;19207;-23.482;-46.500;2023-06-22T15:21:34;13.32;;;6.60;;
21014;SDS011;19207;-23.482;-46.500;2023-06-22T15:24:21;9.23;;;6.25;;
21014;SDS011;19207;-23.482;-46.500;2023-06-22T15:27:08;11.73;;;6.07;;
21014;SDS011;19207;-23.482;-46.500;2023-06-22T15:29:55;15.50;;;6.10;;
21014;SDS011;19207;-23.482;-46.500;2023-06-22T15:32:43;13.07;;;6.60;;
21014;SDS011;19207;-23.482;-46.500;2023-06-22T15:35:30;9.95;;;6.53;;
21014;SDS011;19207;-23.482;-46.500;2023-06-22T15:38:17;15.80;;;6.45;;
21014;SDS011;19207;-23.482;-46.500;2023-06-22T15:41:19;16.15;;;6.55;;
21014;SDS011;19207;-23.482;-46.500;2023-06-22T15:44:08;13.45;;;6.03;;
21014;SDS011;19207;-23.482;-46.500;2023-06-22T15:46:55;16.73;;;6.00;;
21014;SDS011;19207;-23.482;-46.500;2023-06-22T15:49:42;10.25;;;6.18;;
21014;SDS011;19207;-23.482;-46.500;2023-06-22T15:52:29;11.70;;;6.78;;
21014;SDS011;19207;-23.482;-46.500;2023-06-22T15:55:17;14.18;;;5.95;;
21014;SDS011;19207;-23.482;-46.500;2023-06-22T15:58:06;10.52;;;6.07;;
21014;SDS011;19207;-23.482;-46.500;2023-06-22T16:00:55;8.77;;;6.55;;
21014;SDS011;19207;-23.482;-46.500;2023-06-22T16:03:41;13.15;;;6.30;;
21014;SDS011;19207;-23.482;-46.500;2023-06-22T16:06:28;10.88;;;6.15;;
21014;SDS011;19207;-23.482;-46.500;2023-06-22T16:09:15;12.70;;;6.15;;
21014;SDS011;19207;-23.482;-46.500;2023-06-22T16:12:02;9.90;;;5.90;;
21014;SDS011;19207;-23.482;-46.500;2023-06-22T16:14:50;11.57;;;6.07;;
21014;SDS011;19207;-23.482;-46.500;2023-06-22T16:17:38;11.07;;;6.45;;
21014;SDS011;19207;-23.482;-46.500;2023-06-22T16:20:25;14.85;;;6.62;;
21014;SDS011;19207;-23.482;-46.500;2023-06-22T16:23:12;12.15;;;6.30;;
21014;SDS011;19207;-23.482;-46.500;2023-06-22T16:25:59;12.85;;;6.85;;
21014;SDS011;19207;-23.482;-46.500;2023-06-22T16:28:46;13.38;;;11.80;;
21014;SDS011;19207;-23.482;-46.500;2023-06-22T16:31:33;14.13;;;9.77;;
21014;SDS011;19207;-23.482;-46.500;2023-06-22T16:34:20;9.05;;;6.40;;
21014;SDS011;19207;-23.482;-46.500;2023-06-22T16:37:07;9.85;;;5.95;;
21014;SDS011;19207;-23.482;-46.500;2023-06-22T16:39:53;14.65;;;9.82;;
21014;SDS011;19207;-23.482;-46.500;2023-06-22T16:42:40;13.88;;;6.30;;
21014;SDS011;19207;-23.482;-46.500;2023-06-22T16:45:30;11.88;;;6.90;;
21014;SDS011;19207;-23.482;-46.500;2023-06-22T16:48:18;12.88;;;6.20;;
21014;SDS011;19207;-23.482;-46.500;2023-06-22T16:51:05;15.13;;;6.60;;
21014;SDS011;19207;-23.482;-46.500;2023-06-22T16:53:55;12.88;;;6.12;;
21014;SDS011;19207;-23.482;-46.500;2023-06-22T16:56:43;10.27;;;6.55;;
21014;SDS011;19207;-23.482;-46.500;2023-06-22T16:59:30;10.05;;;6.40;;
21014;SDS011;19207;-23.482;-46.500;2023-06-22T17:02:17;17.17;;;6.28;;
21014;SDS011;19207;-23.482;-46.500;2023-06-22T17:05:06;9.25;;;6.30;;
21014;SDS011;19207;-23.482;-46.500;2023-06-22T17:07:53;12.00;;;6.55;;
21014;SDS011;19207;-23.482;-46.500;2023-06-22T17:10:40;9.82;;;6.35;;
21014;SDS011;19207;-23.482;-46.500;2023-06-22T17:13:27;10.70;;;6.55;;
21014;SDS011;19207;-23.482;-46.500;2023-06-22T17:16:15;13.13;;;6.62;;
21014;SDS011;19207;-23.482;-46.500;2023-06-22T17:19:03;12.63;;;6.60;;
21014;SDS011;19207;-23.482;-46.500;2023-06-22T17:21:50;12.13;;;6.90;;
21014;SDS011;19207;-23.482;-46.500;2023-06-22T17:24:37;9.80;;;6.68;;
21014;SDS011;19207;-23.482;-46.500;2023-06-22T17:27:28;19.12;;;6.65;;
21014;SDS011;19207;-23.482;-46.500;2023-06-22T17:30:15;11.15;;;6.80;;